createdAt,value
2022-08-30T00:02:10.923Z,100253.88
2022-08-30T00:04:37.783Z,100260.00
2022-08-30T00:07:04.624Z,100254.91
2022-08-30T00:09:32.191Z,100258.47
2022-08-30T00:11:58.800Z,100252.38
2022-08-30T00:14:27.407Z,100255.25
2022-08-30T00:16:54.166Z,100255.75
2022-08-30T00:19:20.657Z,100259.63
2022-08-30T00:21:47.235Z,100256.09
2022-08-30T00:24:13.654Z,100265.03
2022-08-30T00:26:40.100Z,100259.13
2022-08-30T00:29:06.548Z,100261.31
2022-08-30T00:31:34.438Z,100262.34
2022-08-30T00:34:04.169Z,100264.03
2022-08-30T00:36:37.563Z,100257.25
2022-08-30T00:39:04.362Z,100265.38
2022-08-30T00:41:31.009Z,100266.53
2022-08-30T00:43:57.717Z,100273.13
2022-08-30T00:46:27.666Z,100261.63
2022-08-30T00:48:55.754Z,100266.88
2022-08-30T00:51:22.656Z,100264.16
2022-08-30T00:53:54.905Z,100268.41
2022-08-30T00:56:23.411Z,100260.78
2022-08-30T00:58:52.334Z,100253.84
2022-08-30T01:01:19.407Z,100260.59
2022-08-30T01:03:47.282Z,100261.59
2022-08-30T01:06:17.422Z,100250.28
2022-08-30T01:08:45.432Z,100250.75
2022-08-30T01:11:13.898Z,100253.13
2022-08-30T01:13:41.018Z,100254.16
2022-08-30T01:16:08.678Z,100252.63
2022-08-30T01:18:37.107Z,100255.28
2022-08-30T01:21:15.516Z,100251.22
2022-08-30T01:23:44.403Z,100258.16
2022-08-30T01:26:13.098Z,100255.28
2022-08-30T01:28:46.035Z,100257.81
2022-08-30T01:31:12.965Z,100243.47
2022-08-30T01:33:40.018Z,100249.72
2022-08-30T01:36:10.738Z,100252.72
2022-08-30T01:38:55.445Z,100251.34
2022-08-30T01:41:31.772Z,100257.06
2022-08-30T01:44:02.110Z,100252.13
2022-08-30T01:46:36.090Z,100257.53
2022-08-30T01:49:06.765Z,100260.41
2022-08-30T01:51:33.633Z,100255.34
2022-08-30T01:54:00.700Z,100261.59
2022-08-30T01:56:29.045Z,100254.31
2022-08-30T01:59:01.825Z,100257.00
2022-08-30T02:01:32.400Z,100253.97
2022-08-30T02:04:00.077Z,100262.22
2022-08-30T02:06:27.947Z,100254.28
2022-08-30T02:08:54.668Z,100250.25
2022-08-30T02:11:21.557Z,100250.25
2022-08-30T02:13:48.514Z,100244.00
2022-08-30T02:16:18.261Z,100243.81
2022-08-30T02:18:45.417Z,100249.22
2022-08-30T02:21:12.731Z,100244.97
2022-08-30T02:23:40.081Z,100242.44
2022-08-30T02:26:07.494Z,100245.28
2022-08-30T02:28:34.700Z,100247.66
2022-08-30T02:31:10.180Z,100244.81
2022-08-30T02:33:37.987Z,100246.88
2022-08-30T02:36:08.300Z,100242.81
2022-08-30T02:38:35.607Z,100240.09
2022-08-30T02:41:02.226Z,100242.97
2022-08-30T02:43:29.064Z,100244.50
2022-08-30T02:45:55.756Z,100238.34
2022-08-30T02:48:22.430Z,100251.53
2022-08-30T02:50:51.620Z,100246.91
2022-08-30T02:53:18.763Z,100239.28
2022-08-30T02:55:47.633Z,100245.38
2022-08-30T02:58:14.320Z,100247.38
2022-08-30T03:00:41.413Z,100248.06
2022-08-30T03:03:08.418Z,100252.41
2022-08-30T03:05:37.970Z,100243.69
2022-08-30T03:08:07.187Z,100245.84
2022-08-30T03:10:33.728Z,100248.22
2022-08-30T03:13:00.852Z,100246.69
2022-08-30T03:15:27.659Z,100239.75
2022-08-30T03:17:54.468Z,100242.63
2022-08-30T03:20:21.995Z,100242.13
2022-08-30T03:22:48.488Z,100243.28
2022-08-30T03:25:16.643Z,100240.28
2022-08-30T03:27:43.096Z,100248.53
2022-08-30T03:30:10.268Z,100249.53
2022-08-30T03:32:36.776Z,100239.19
2022-08-30T03:35:03.767Z,100243.44
2022-08-30T03:37:30.196Z,100234.03
2022-08-30T03:39:57.048Z,100234.50
2022-08-30T03:42:24.785Z,100239.53
2022-08-30T03:44:51.843Z,100233.81
2022-08-30T03:47:18.306Z,100227.41
2022-08-30T03:49:44.883Z,100233.13
2022-08-30T03:52:11.373Z,100229.03
2022-08-30T03:54:38.655Z,100230.50
2022-08-30T03:57:05.371Z,100220.94
2022-08-30T03:59:32.013Z,100226.66
2022-08-30T04:01:59.191Z,100229.03
2022-08-30T04:04:25.752Z,100236.81
2022-08-30T04:06:52.546Z,100236.88
2022-08-30T04:09:19.280Z,100235.13
2022-08-30T04:11:45.785Z,100241.84
2022-08-30T04:14:12.698Z,100242.84
2022-08-30T04:16:39.164Z,100246.69
2022-08-30T04:19:05.689Z,100249.56
2022-08-30T04:21:32.288Z,100249.75
2022-08-30T04:24:01.655Z,100257.19
2022-08-30T04:26:29.420Z,100257.72
2022-08-30T04:28:56.739Z,100256.31
2022-08-30T04:31:23.450Z,100251.94
2022-08-30T04:33:50.019Z,100254.78
2022-08-30T04:36:16.475Z,100254.63
2022-08-30T04:38:43.020Z,100266.44
2022-08-30T04:41:17.576Z,100258.03
2022-08-30T04:43:45.618Z,100262.41
2022-08-30T04:46:16.096Z,100260.03
2022-08-30T04:48:42.656Z,100275.81
2022-08-30T04:51:11.168Z,100276.84
2022-08-30T04:53:37.675Z,100270.75
2022-08-30T04:56:18.430Z,100268.66
2022-08-30T04:58:46.237Z,100282.31
2022-08-30T05:01:24.678Z,100270.41
2022-08-30T05:03:53.085Z,100269.44
2022-08-30T05:06:20.195Z,100283.94
2022-08-30T05:08:47.058Z,100283.78
2022-08-30T05:11:15.404Z,100282.09
2022-08-30T05:13:42.788Z,100288.72
2022-08-30T05:16:09.741Z,100297.19
2022-08-30T05:18:37.010Z,100294.47
2022-08-30T05:21:08.946Z,100300.75
2022-08-30T05:23:36.768Z,100297.94
2022-08-30T05:26:08.164Z,100305.44
2022-08-30T05:28:35.802Z,100313.53
2022-08-30T05:31:02.826Z,100314.03
2022-08-30T05:33:29.493Z,100325.03
2022-08-30T05:35:56.021Z,100327.47
2022-08-30T05:38:22.502Z,100336.13
2022-08-30T05:40:50.149Z,100339.97
2022-08-30T05:43:16.820Z,100344.41
2022-08-30T05:45:43.294Z,100344.38
2022-08-30T05:48:09.803Z,100341.03
2022-08-30T05:50:40.136Z,100346.13
2022-08-30T05:53:06.739Z,100343.97
2022-08-30T05:55:33.184Z,100350.41
2022-08-30T05:58:00.817Z,100353.47
2022-08-30T06:00:30.232Z,100355.19
2022-08-30T06:02:56.875Z,100350.81
2022-08-30T06:05:23.601Z,100364.50
2022-08-30T06:07:50.251Z,100368.78
2022-08-30T06:10:17.348Z,100378.41
2022-08-30T06:12:44.060Z,100390.59
2022-08-30T06:15:11.380Z,100387.56
2022-08-30T06:17:39.657Z,100388.78
2022-08-30T06:20:06.993Z,100387.38
2022-08-30T06:22:33.624Z,100392.84
2022-08-30T06:25:00.206Z,100418.88
2022-08-30T06:27:27.151Z,100420.22
2022-08-30T06:29:53.568Z,100418.19
2022-08-30T06:32:20.073Z,100424.03
2022-08-30T06:34:46.546Z,100432.25
2022-08-30T06:37:21.958Z,100422.34
2022-08-30T06:39:57.500Z,100414.44
2022-08-30T06:42:24.420Z,100413.66
2022-08-30T06:44:50.998Z,100428.91
2022-08-30T06:47:18.048Z,100426.19
2022-08-30T06:49:45.515Z,100416.56
2022-08-30T06:52:11.949Z,100423.47
2022-08-30T06:54:38.667Z,100413.25
2022-08-30T06:57:05.129Z,100424.44
2022-08-30T06:59:32.447Z,100426.38
2022-08-30T07:01:59.035Z,100411.25
2022-08-30T07:04:25.872Z,100420.97
2022-08-30T07:06:53.223Z,100420.06
2022-08-30T07:09:22.833Z,100419.03
2022-08-30T07:11:50.022Z,100419.84
2022-08-30T07:14:16.475Z,100414.94
2022-08-30T07:16:43.925Z,100407.69
2022-08-30T07:19:20.334Z,100413.47
2022-08-30T07:21:49.246Z,100419.06
2022-08-30T07:24:16.571Z,100421.72
2022-08-30T07:26:49.710Z,100428.81
2022-08-30T07:29:17.777Z,100430.09
2022-08-30T07:31:44.449Z,100436.31
2022-08-30T07:34:10.875Z,100435.75
2022-08-30T07:36:38.290Z,100439.66
2022-08-30T07:39:06.360Z,100439.22
2022-08-30T07:41:35.853Z,100444.41
2022-08-30T07:44:03.105Z,100443.50
2022-08-30T07:46:29.978Z,100450.41
2022-08-30T07:48:56.550Z,100446.56
2022-08-30T07:51:24.912Z,100454.50
2022-08-30T07:53:51.513Z,100445.00
2022-08-30T07:56:18.420Z,100443.63
2022-08-30T07:58:44.946Z,100445.53
2022-08-30T08:01:12.330Z,100442.69
2022-08-30T08:03:42.187Z,100445.06
2022-08-30T08:06:09.945Z,100443.19
2022-08-30T08:08:36.903Z,100437.22
2022-08-30T08:11:16.363Z,100441.00
2022-08-30T08:13:48.951Z,100440.28
2022-08-30T08:16:23.743Z,100434.56
2022-08-30T08:18:50.845Z,100431.44
2022-08-30T08:21:17.269Z,100435.94
2022-08-30T08:23:43.971Z,100437.50
2022-08-30T08:26:10.620Z,100442.47
2022-08-30T08:28:37.100Z,100447.66
2022-08-30T08:31:03.671Z,100446.63
2022-08-30T08:33:30.259Z,100445.06
2022-08-30T08:35:56.657Z,100447.13
2022-08-30T08:38:23.083Z,100449.13
2022-08-30T08:41:11.246Z,100442.78
2022-08-30T08:43:37.760Z,100444.78
2022-08-30T08:46:12.458Z,100442.41
2022-08-30T08:48:58.659Z,100435.00
2022-08-30T08:51:47.136Z,100439.91
2022-08-30T08:54:41.192Z,100441.13
2022-08-30T08:57:12.365Z,100435.25
2022-08-30T08:59:40.218Z,100435.56
2022-08-30T09:02:24.552Z,100440.34
2022-08-30T09:04:53.721Z,100446.31
2022-08-30T09:07:23.562Z,100440.97
2022-08-30T09:09:50.244Z,100432.94
2022-08-30T09:12:16.991Z,100433.66
2022-08-30T09:14:48.193Z,100434.13
2022-08-30T09:17:17.434Z,100436.59
2022-08-30T09:19:57.024Z,100435.47
2022-08-30T09:22:36.196Z,100429.50
2022-08-30T09:25:09.116Z,100429.19
2022-08-30T09:27:45.818Z,100423.50
2022-08-30T09:30:18.854Z,100427.41
2022-08-30T09:32:56.275Z,100426.59
2022-08-30T09:35:34.821Z,100428.34
2022-08-30T09:38:07.852Z,100423.50
2022-08-30T09:40:45.110Z,100406.84
2022-08-30T09:43:17.751Z,100416.78
2022-08-30T09:45:47.519Z,100431.47
2022-08-30T09:48:31.724Z,100417.81
2022-08-30T09:51:10.227Z,100417.88
2022-08-30T09:54:17.387Z,100413.34
2022-08-30T09:56:56.808Z,100410.34
2022-08-30T09:59:54.797Z,100403.25
2022-08-30T10:02:40.033Z,100398.31
2022-08-30T10:05:35.593Z,100397.44
2022-08-30T10:08:09.045Z,100402.91
2022-08-30T10:10:55.323Z,100397.00
2022-08-30T10:13:39.564Z,100395.59
2022-08-30T10:16:19.286Z,100401.78
2022-08-30T10:18:54.126Z,100402.97
2022-08-30T10:21:45.391Z,100402.78
2022-08-30T10:24:20.842Z,100397.47
2022-08-30T10:26:51.615Z,100403.09
2022-08-30T10:29:24.146Z,100399.69
2022-08-30T10:32:04.672Z,100396.03
2022-08-30T10:34:51.598Z,100402.78
2022-08-30T10:37:21.899Z,100393.28
2022-08-30T10:40:00.646Z,100387.59
2022-08-30T10:42:36.662Z,100384.06
2022-08-30T10:45:11.764Z,100397.34
2022-08-30T10:48:00.360Z,100388.81
2022-08-30T10:50:40.992Z,100383.47
2022-08-30T10:53:08.828Z,100387.56
2022-08-30T10:55:55.234Z,100380.91
2022-08-30T10:58:21.762Z,100388.41
2022-08-30T11:01:04.516Z,100394.19
2022-08-30T11:03:43.669Z,100379.56
2022-08-30T11:06:29.939Z,100395.34
2022-08-30T11:10:02.403Z,100387.22
2022-08-30T11:12:59.817Z,100387.56
2022-08-30T11:15:31.666Z,100389.41
2022-08-30T11:18:10.452Z,100377.34
2022-08-30T11:20:41.275Z,100388.22
2022-08-30T11:23:43.288Z,100376.75
2022-08-30T11:26:20.518Z,100376.16
2022-08-30T11:28:47.760Z,100376.84
2022-08-30T11:31:20.399Z,100370.63
2022-08-30T11:33:56.968Z,100374.69
2022-08-30T11:36:37.766Z,100365.94
2022-08-30T11:39:12.295Z,100365.19
2022-08-30T11:41:45.582Z,100367.28
2022-08-30T11:44:31.261Z,100368.19
2022-08-30T11:47:01.031Z,100366.28
2022-08-30T11:49:39.663Z,100361.09
2022-08-30T11:52:27.242Z,100364.59
2022-08-30T11:55:07.634Z,100359.00
2022-08-30T11:57:46.390Z,100362.72
2022-08-30T12:00:34.956Z,100361.91
2022-08-30T12:03:27.095Z,100353.47
2022-08-30T12:06:09.041Z,100353.06
2022-08-30T12:08:36.089Z,100357.88
2022-08-30T12:11:12.917Z,100356.28
2022-08-30T12:13:42.136Z,100355.84
2022-08-30T12:16:12.929Z,100350.44
2022-08-30T12:18:48.107Z,100350.00
2022-08-30T12:21:17.505Z,100354.63
2022-08-30T12:24:07.683Z,100343.19
2022-08-30T12:26:41.289Z,100341.31
2022-08-30T12:29:20.097Z,100338.38
2022-08-30T12:31:51.884Z,100338.47
2022-08-30T12:34:35.590Z,100335.97
2022-08-30T12:37:18.816Z,100335.94
2022-08-30T12:39:47.126Z,100335.38
2022-08-30T12:42:26.965Z,100334.41
2022-08-30T12:44:57.851Z,100338.72
2022-08-30T12:47:40.623Z,100335.72
2022-08-30T12:50:07.424Z,100336.84
2022-08-30T12:52:40.852Z,100339.31
2022-08-30T12:55:21.372Z,100336.56
2022-08-30T12:58:05.500Z,100331.44
2022-08-30T13:00:36.352Z,100338.47
2022-08-30T13:03:24.022Z,100333.78
2022-08-30T13:05:53.160Z,100333.06
2022-08-30T13:08:27.510Z,100337.66
2022-08-30T13:10:57.669Z,100333.66
2022-08-30T13:13:38.941Z,100327.81
2022-08-30T13:16:18.061Z,100319.91
2022-08-30T13:18:46.247Z,100317.81
2022-08-30T13:21:33.492Z,100324.50
2022-08-30T13:24:02.386Z,100322.53
2022-08-30T13:26:32.283Z,100324.13
2022-08-30T13:29:01.070Z,100319.97
2022-08-30T13:31:29.377Z,100319.31
2022-08-30T13:33:56.974Z,100317.13
2022-08-30T13:36:35.380Z,100321.06
2022-08-30T13:39:03.617Z,100312.94
2022-08-30T13:41:34.199Z,100318.56
2022-08-30T13:44:13.110Z,100311.97
2022-08-30T13:46:43.378Z,100313.19
2022-08-30T13:52:30.378Z,100296.50
2022-08-30T13:54:57.947Z,100300.31
2022-08-30T14:00:18.862Z,100307.63
2022-08-30T14:02:51.572Z,100296.66
2022-08-30T14:05:50.160Z,100299.22
2022-08-30T14:11:11.786Z,100302.84
2022-08-30T14:14:14.468Z,100313.09
2022-08-30T14:16:27.139Z,100305.03
2022-08-30T14:18:54.203Z,100293.34
2022-08-30T14:21:24.545Z,100292.53
2022-08-30T14:23:52.743Z,100293.47
2022-08-30T14:26:23.419Z,100297.22
2022-08-30T14:28:51.744Z,100295.84
2022-08-30T14:31:18.760Z,100288.19
2022-08-30T14:33:46.723Z,100291.38
2022-08-30T14:36:15.293Z,100294.66
2022-08-30T14:38:42.781Z,100299.03
2022-08-30T14:41:10.281Z,100294.59
2022-08-30T14:43:37.749Z,100297.22
2022-08-30T14:46:05.520Z,100293.31
2022-08-30T14:48:32.080Z,100292.09
2022-08-30T14:50:58.586Z,100294.75
2022-08-30T14:53:25.036Z,100290.59
2022-08-30T14:55:51.467Z,100283.03
2022-08-30T14:58:19.100Z,100290.63
2022-08-30T15:00:52.701Z,100286.75
2022-08-30T15:03:19.594Z,100283.94
2022-08-30T15:05:53.023Z,100285.09
2022-08-30T15:08:19.760Z,100283.44
2022-08-30T15:10:47.480Z,100286.44
2022-08-30T15:13:14.153Z,100281.50
2022-08-30T15:15:42.712Z,100279.41
2022-08-30T15:18:10.515Z,100276.66
2022-08-30T15:20:37.798Z,100271.59
2022-08-30T15:23:05.031Z,100274.03
2022-08-30T15:25:31.763Z,100274.72
2022-08-30T15:27:58.224Z,100283.28
2022-08-30T15:30:24.989Z,100278.81
2022-08-30T15:32:51.788Z,100272.41
2022-08-30T15:35:18.422Z,100268.84
2022-08-30T15:37:45.227Z,100272.66
2022-08-30T15:40:11.897Z,100277.09
2022-08-30T15:42:39.479Z,100274.56
2022-08-30T15:45:06.676Z,100276.13
2022-08-30T15:47:33.354Z,100281.63
2022-08-30T15:50:03.057Z,100276.97
2022-08-30T15:52:30.587Z,100277.31
2022-08-30T15:54:57.456Z,100273.72
2022-08-30T15:57:24.213Z,100278.84
2022-08-30T15:59:51.300Z,100270.84
2022-08-30T16:02:17.968Z,100272.63
2022-08-30T16:04:44.742Z,100277.19
2022-08-30T16:07:13.292Z,100281.53
2022-08-30T16:09:40.568Z,100284.47
2022-08-30T16:12:08.465Z,100281.13
2022-08-30T16:14:36.524Z,100277.25
2022-08-30T16:17:03.150Z,100276.31
2022-08-30T16:19:29.927Z,100279.06
2022-08-30T16:21:56.361Z,100278.97
2022-08-30T16:24:23.487Z,100272.44
2022-08-30T16:26:51.409Z,100273.47
2022-08-30T16:29:17.874Z,100262.94
2022-08-30T16:31:44.934Z,100261.03
2022-08-30T16:34:13.501Z,100264.13
2022-08-30T16:36:40.145Z,100260.56
2022-08-30T16:39:08.475Z,100260.56
2022-08-30T16:41:35.801Z,100264.97
2022-08-30T16:44:03.784Z,100265.22
2022-08-30T16:46:33.436Z,100259.41
2022-08-30T16:49:03.587Z,100261.31
2022-08-30T16:51:31.553Z,100261.03
2022-08-30T16:53:59.995Z,100255.97
2022-08-30T16:56:29.555Z,100248.31
2022-08-30T16:59:02.665Z,100246.69
2022-08-30T17:01:34.864Z,100249.38
2022-08-30T17:04:02.179Z,100250.22
2022-08-30T17:06:28.773Z,100254.69
2022-08-30T17:08:56.215Z,100255.56
2022-08-30T17:11:23.877Z,100260.81
2022-08-30T17:13:50.976Z,100262.34
2022-08-30T17:16:22.688Z,100262.63
2022-08-30T17:18:55.009Z,100264.63
2022-08-30T17:21:21.878Z,100269.50
2022-08-30T17:23:50.367Z,100258.44
2022-08-30T17:26:18.290Z,100266.53
2022-08-30T17:28:45.742Z,100267.25
2022-08-30T17:31:12.558Z,100268.75
2022-08-30T17:33:43.050Z,100268.41
2022-08-30T17:36:12.377Z,100270.00
2022-08-30T17:38:44.781Z,100279.19
2022-08-30T17:41:11.973Z,100272.97
2022-08-30T17:43:39.183Z,100277.44
2022-08-30T17:46:08.621Z,100278.59
2022-08-30T17:48:35.433Z,100279.88
2022-08-30T17:51:02.053Z,100284.16
2022-08-30T17:53:29.059Z,100286.50
2022-08-30T17:55:56.449Z,100290.78
2022-08-30T17:58:25.146Z,100293.75
2022-08-30T18:00:54.118Z,100295.03
2022-08-30T18:03:20.719Z,100296.50
2022-08-30T18:05:47.233Z,100299.28
2022-08-30T18:08:14.111Z,100296.13
2022-08-30T18:10:40.732Z,100299.94
2022-08-30T18:13:07.191Z,100301.41
2022-08-30T18:15:33.931Z,100297.41
2022-08-30T18:18:01.343Z,100307.66
2022-08-30T18:20:31.793Z,100303.25
2022-08-30T18:22:58.272Z,100306.38
2022-08-30T18:25:24.821Z,100301.06
2022-08-30T18:27:58.390Z,100303.38
2022-08-30T18:30:33.308Z,100300.63
2022-08-30T18:33:01.426Z,100306.69
2022-08-30T18:35:27.948Z,100296.38
2022-08-30T18:37:54.440Z,100306.41
2022-08-30T18:40:21.353Z,100302.63
2022-08-30T18:42:47.904Z,100306.13
2022-08-30T18:45:15.505Z,100319.34
2022-08-30T18:47:42.479Z,100320.56
2022-08-30T18:50:09.109Z,100322.66
2022-08-30T18:52:35.943Z,100329.00
2022-08-30T18:55:02.674Z,100332.53
2022-08-30T18:57:29.111Z,100325.97
2022-08-30T18:59:57.553Z,100324.88
2022-08-30T19:02:27.511Z,100326.47
2022-08-30T19:04:54.692Z,100331.66
2022-08-30T19:07:21.519Z,100324.91
2022-08-30T19:09:55.515Z,100325.94
2022-08-30T19:12:26.093Z,100327.38
2022-08-30T19:14:54.094Z,100323.38
2022-08-30T19:17:20.627Z,100314.31
2022-08-30T19:19:49.111Z,100316.78
2022-08-30T19:22:17.667Z,100319.25
2022-08-30T19:24:45.518Z,100313.38
2022-08-30T19:27:11.936Z,100324.44
2022-08-30T19:29:39.581Z,100322.75
2022-08-30T19:32:06.185Z,100327.94
2022-08-30T19:34:32.639Z,100326.91
2022-08-30T19:36:59.829Z,100324.56
2022-08-30T19:39:26.732Z,100328.25
2022-08-30T19:41:53.360Z,100323.66
2022-08-30T19:44:19.910Z,100326.25
2022-08-30T19:46:46.865Z,100321.53
2022-08-30T19:49:13.898Z,100318.41
2022-08-30T19:51:46.843Z,100318.94
2022-08-30T19:54:14.329Z,100310.69
2022-08-30T19:56:40.842Z,100310.47
2022-08-30T19:59:07.370Z,100312.53
2022-08-30T20:01:34.208Z,100308.25
2022-08-30T20:04:01.849Z,100307.41
2022-08-30T20:06:28.856Z,100307.13
2022-08-30T20:08:56.701Z,100313.38
2022-08-30T20:11:24.895Z,100309.16
2022-08-30T20:13:51.357Z,100306.44
2022-08-30T20:16:17.996Z,100300.91
2022-08-30T20:18:44.751Z,100305.69
2022-08-30T20:21:14.338Z,100302.50
2022-08-30T20:23:43.087Z,100301.66
2022-08-30T20:26:10.960Z,100302.88
2022-08-30T20:28:38.292Z,100312.03
2022-08-30T20:31:05.910Z,100302.75
2022-08-30T20:33:36.466Z,100306.66
2022-08-30T20:36:04.986Z,100302.91
2022-08-30T20:38:31.714Z,100303.47
2022-08-30T20:40:58.914Z,100312.09
2022-08-30T20:43:28.502Z,100314.94
2022-08-30T20:45:55.505Z,100319.06
2022-08-30T20:48:22.872Z,100314.47
2022-08-30T20:50:49.526Z,100317.34
2022-08-30T20:53:16.360Z,100315.19
2022-08-30T20:55:45.045Z,100310.72
2022-08-30T20:58:11.803Z,100307.16
2022-08-30T21:00:38.557Z,100323.28
2022-08-30T21:03:06.703Z,100321.13
2022-08-30T21:05:51.901Z,100326.13
2022-08-30T21:08:18.620Z,100325.00
2022-08-30T21:10:45.269Z,100326.97
2022-08-30T21:13:11.716Z,100330.22
2022-08-30T21:15:38.508Z,100328.34
2022-08-30T21:18:05.395Z,100330.81
2022-08-30T21:20:32.745Z,100331.06
2022-08-30T21:22:59.221Z,100332.50
2022-08-30T21:25:26.003Z,100331.75
2022-08-30T21:27:53.682Z,100333.50
2022-08-30T21:30:20.515Z,100326.38
2022-08-30T21:32:47.036Z,100330.53
2022-08-30T21:35:32.267Z,100329.38
2022-08-30T21:37:58.869Z,100329.63
2022-08-30T21:40:25.380Z,100319.53
2022-08-30T21:42:52.225Z,100321.72
2022-08-30T21:45:19.034Z,100315.44
2022-08-30T21:47:45.446Z,100323.47
2022-08-30T21:50:11.981Z,100320.75
2022-08-30T21:52:38.698Z,100319.81
2022-08-30T21:55:05.701Z,100326.06
2022-08-30T21:57:32.866Z,100324.88
2022-08-30T21:59:59.420Z,100323.81
2022-08-30T22:02:26.123Z,100327.44
2022-08-30T22:04:52.673Z,100330.31
2022-08-30T22:07:19.086Z,100334.81
2022-08-30T22:09:45.505Z,100330.09
2022-08-30T22:12:11.970Z,100330.13
2022-08-30T22:14:38.465Z,100339.03
2022-08-30T22:17:05.460Z,100333.59
2022-08-30T22:19:33.855Z,100331.94
2022-08-30T22:22:01.764Z,100340.56
2022-08-30T22:24:32.128Z,100335.31
2022-08-30T22:27:00.700Z,100330.97
2022-08-30T22:29:27.154Z,100326.56
2022-08-30T22:31:54.183Z,100326.56
2022-08-30T22:34:20.892Z,100313.38
2022-08-30T22:36:47.491Z,100316.31
2022-08-30T22:39:14.270Z,100314.09
2022-08-30T22:41:42.819Z,100313.41
2022-08-30T22:44:09.505Z,100307.00
2022-08-30T22:46:37.632Z,100305.19
2022-08-30T22:49:05.908Z,100314.84
2022-08-30T22:51:33.640Z,100315.28
2022-08-30T22:54:01.403Z,100315.13
2022-08-30T22:56:28.432Z,100322.06
2022-08-30T22:58:55.475Z,100323.75
2022-08-30T23:01:31.123Z,100336.97
2022-08-30T23:03:58.910Z,100331.78
2022-08-30T23:06:29.457Z,100325.53
2022-08-30T23:08:56.265Z,100322.66
2022-08-30T23:11:22.981Z,100329.28
2022-08-30T23:13:49.856Z,100325.25
2022-08-30T23:16:18.736Z,100323.72
2022-08-30T23:18:46.625Z,100321.72
2022-08-30T23:21:16.643Z,100321.72
2022-08-30T23:24:03.059Z,100315.47
2022-08-30T23:26:49.283Z,100309.88
2022-08-30T23:29:35.125Z,100310.56
2022-08-30T23:32:20.967Z,100308.34
2022-08-30T23:35:06.860Z,100298.19
2022-08-30T23:37:53.044Z,100298.34
2022-08-30T23:40:40.533Z,100301.41
2022-08-30T23:43:27.547Z,100306.00
2022-08-30T23:46:19.202Z,100298.53
2022-08-30T23:49:09.193Z,100303.47
2022-08-30T23:51:56.720Z,100296.84
2022-08-30T23:54:42.831Z,100294.66
2022-08-30T23:57:28.136Z,100292.13
